Arapahoe, Colorado
Current Conditions -  °F | °C
As of 5:53 AM on Tuesday 21 Oct 2014 (Local Time) from KITR Reporting Station
Haze Haze  
Wind Chill: 11°   Ceiling: Unl
Heat Index: 11°   Visibility: 6mi
Dew Point:   Wind: 13mph
Humidity: 89%   Direction: 180°S
Pressure: 30.06"   Gusts: NA
Location:  38.85°N, 102.18°W
Report Text: KITR 211153Z AUTO 18011KT 6SM BR CLR 11/09 A3006 RMK AO2 SLP145 T01110094 10122 20100 56008
Loading
Personal Weather Stations






























Interactive Weather Map
Tropical Storm Tracking
New forecast layout! Learn more

10-Day Weather Forecast

Advertisements
Track Severe Weather on mobile